createdAt,value
2022-08-31T00:00:09.779Z,7.30
2022-08-31T00:02:55.068Z,8.68
2022-08-31T00:05:22.818Z,5.55
2022-08-31T00:07:50.635Z,5.97
2022-08-31T00:10:20.383Z,5.20
2022-08-31T00:13:02.916Z,5.68
2022-08-31T00:15:30.952Z,7.43
2022-08-31T00:17:58.747Z,6.03
2022-08-31T00:20:33.784Z,5.90
2022-08-31T00:23:02.380Z,5.15
2022-08-31T00:25:32.257Z,11.43
2022-08-31T00:27:59.965Z,6.50
2022-08-31T00:30:27.921Z,5.60
2022-08-31T00:32:57.095Z,5.97
2022-08-31T00:35:26.886Z,7.45
2022-08-31T00:37:54.647Z,5.90
2022-08-31T00:40:22.977Z,6.72
2022-08-31T00:42:52.248Z,6.07
2022-08-31T00:45:20.077Z,6.95
2022-08-31T00:47:47.781Z,5.68
2022-08-31T00:50:17.975Z,6.20
2022-08-31T00:52:49.390Z,7.43
2022-08-31T00:55:21.183Z,7.07
2022-08-31T00:57:52.285Z,5.70
2022-08-31T01:00:23.948Z,9.40
2022-08-31T01:02:52.366Z,5.25
2022-08-31T01:05:21.070Z,6.65
2022-08-31T01:07:50.816Z,5.13
2022-08-31T01:10:21.969Z,6.05
2022-08-31T01:12:52.139Z,7.00
2022-08-31T01:15:22.970Z,3.75
2022-08-31T01:17:53.428Z,7.00
2022-08-31T01:20:25.931Z,4.43
2022-08-31T01:23:11.969Z,11.02
2022-08-31T01:25:42.408Z,11.73
2022-08-31T01:28:11.147Z,7.50
2022-08-31T01:30:39.631Z,7.13
2022-08-31T01:33:07.748Z,6.28
2022-08-31T01:35:35.916Z,6.60
2022-08-31T01:38:04.539Z,5.43
2022-08-31T01:40:38.468Z,8.18
2022-08-31T01:43:06.173Z,7.68
2022-08-31T01:45:33.817Z,6.30
2022-08-31T01:48:01.507Z,8.13
2022-08-31T01:50:30.580Z,5.43
2022-08-31T01:52:58.332Z,5.45
2022-08-31T01:55:26.167Z,9.10
2022-08-31T01:57:55.434Z,6.88
2022-08-31T02:00:23.678Z,7.35
2022-08-31T02:02:51.523Z,8.70
2022-08-31T02:05:19.520Z,6.80
2022-08-31T02:07:47.915Z,7.15
2022-08-31T02:10:15.663Z,5.13
2022-08-31T02:12:43.353Z,7.68
2022-08-31T02:15:12.873Z,8.32
2022-08-31T02:17:41.159Z,10.25
2022-08-31T02:20:12.286Z,4.97
2022-08-31T02:22:40.221Z,7.38
2022-08-31T02:25:09.434Z,6.85
2022-08-31T02:27:38.010Z,6.82
2022-08-31T02:30:06.627Z,8.70
2022-08-31T02:32:35.644Z,8.68
2022-08-31T02:35:03.500Z,6.80
2022-08-31T02:37:31.253Z,7.75
2022-08-31T02:40:00.379Z,10.13
2022-08-31T02:42:33.067Z,12.40
2022-08-31T02:45:16.871Z,6.30
2022-08-31T02:47:45.945Z,11.57
2022-08-31T02:50:13.627Z,8.38
2022-08-31T02:52:41.370Z,6.60
2022-08-31T02:55:09.466Z,7.40
2022-08-31T02:57:37.192Z,4.95
2022-08-31T03:00:06.615Z,7.18
2022-08-31T03:02:34.578Z,5.78
2022-08-31T03:05:04.487Z,7.70
2022-08-31T03:07:34.106Z,5.65
2022-08-31T03:10:02.472Z,8.15
2022-08-31T03:12:30.243Z,6.20
2022-08-31T03:14:57.972Z,4.57
2022-08-31T03:17:25.620Z,5.43
2022-08-31T03:20:04.278Z,8.13
2022-08-31T03:22:34.537Z,7.97
2022-08-31T03:25:03.005Z,6.07
2022-08-31T03:27:31.123Z,6.78
2022-08-31T03:29:59.655Z,6.07
2022-08-31T03:32:28.339Z,7.63
2022-08-31T03:34:56.728Z,6.60
2022-08-31T03:37:24.788Z,4.97
2022-08-31T03:39:53.931Z,5.47
2022-08-31T03:42:21.867Z,6.90
2022-08-31T03:44:49.734Z,7.60
2022-08-31T03:47:17.794Z,6.72
2022-08-31T03:49:46.370Z,7.07
2022-08-31T03:52:14.166Z,7.95
2022-08-31T03:54:43.493Z,6.13
2022-08-31T03:57:12.632Z,7.35
2022-08-31T03:59:40.260Z,5.28
2022-08-31T04:02:07.990Z,6.07
2022-08-31T04:04:35.821Z,6.77
2022-08-31T04:07:03.480Z,6.60
2022-08-31T04:09:31.223Z,4.15
2022-08-31T04:11:58.966Z,9.77
2022-08-31T04:14:28.093Z,10.82
2022-08-31T04:16:55.794Z,5.73
2022-08-31T04:19:24.869Z,9.45
2022-08-31T04:21:52.723Z,7.17
2022-08-31T04:24:20.497Z,5.65
2022-08-31T04:26:48.621Z,8.93
2022-08-31T04:29:16.339Z,9.02
2022-08-31T04:31:45.455Z,9.73
2022-08-31T04:34:14.359Z,6.13
2022-08-31T04:36:45.216Z,9.52
2022-08-31T04:39:14.018Z,8.17
2022-08-31T04:41:42.354Z,6.77
2022-08-31T04:44:11.486Z,7.70
2022-08-31T04:46:41.634Z,7.83
2022-08-31T04:49:11.631Z,8.07
2022-08-31T04:51:40.011Z,7.90
2022-08-31T04:54:10.567Z,11.13
2022-08-31T04:56:41.225Z,7.00
2022-08-31T04:59:14.798Z,4.70
2022-08-31T05:01:45.218Z,4.87
2022-08-31T05:04:16.073Z,5.65
2022-08-31T05:06:45.995Z,5.73
2022-08-31T05:09:16.760Z,8.37
2022-08-31T05:11:44.889Z,6.63
2022-08-31T05:14:13.030Z,13.00
2022-08-31T05:16:41.889Z,7.87
2022-08-31T05:19:10.041Z,7.17
2022-08-31T05:21:40.944Z,6.83
2022-08-31T05:24:10.814Z,8.30
2022-08-31T05:26:45.816Z,8.03
2022-08-31T05:29:15.134Z,6.80
2022-08-31T05:31:46.246Z,5.70
2022-08-31T05:34:17.830Z,7.53
2022-08-31T05:36:50.357Z,8.47
2022-08-31T05:39:17.999Z,8.33
2022-08-31T05:41:47.713Z,8.53
2022-08-31T05:44:16.503Z,5.43
2022-08-31T05:46:44.355Z,14.00
2022-08-31T05:49:12.690Z,11.57
2022-08-31T05:51:40.780Z,8.67
2022-08-31T05:54:10.816Z,7.13
2022-08-31T05:56:41.156Z,7.50
2022-08-31T05:59:10.995Z,6.43
2022-08-31T06:01:41.548Z,9.53
2022-08-31T06:04:10.440Z,12.73
2022-08-31T06:06:38.841Z,10.90
2022-08-31T06:09:08.720Z,9.17
2022-08-31T06:11:42.234Z,11.43
2022-08-31T06:14:11.999Z,5.60
2022-08-31T06:16:41.515Z,6.67
2022-08-31T06:19:09.416Z,10.63
2022-08-31T06:21:40.697Z,8.87
2022-08-31T06:24:17.919Z,9.50
2022-08-31T06:26:58.502Z,8.90
2022-08-31T06:29:28.035Z,8.63
2022-08-31T06:31:55.900Z,12.40
2022-08-31T06:34:23.786Z,6.23
2022-08-31T06:36:51.604Z,8.67
2022-08-31T06:39:19.395Z,8.30
2022-08-31T06:41:52.493Z,9.77
2022-08-31T06:44:22.313Z,8.13
2022-08-31T06:46:50.108Z,11.20
2022-08-31T06:49:19.196Z,8.53
2022-08-31T06:51:47.177Z,9.18
2022-08-31T06:54:31.644Z,7.53
2022-08-31T06:57:02.765Z,8.60
2022-08-31T06:59:30.703Z,14.33
2022-08-31T07:01:59.306Z,15.33
2022-08-31T07:04:27.592Z,7.07
2022-08-31T07:06:55.428Z,7.67
2022-08-31T07:09:23.705Z,11.97
2022-08-31T07:11:53.565Z,10.10
2022-08-31T07:14:25.150Z,14.03
2022-08-31T07:16:54.572Z,7.63
2022-08-31T07:19:22.991Z,8.10
2022-08-31T07:21:52.624Z,9.33
2022-08-31T07:24:24.174Z,8.77
2022-08-31T07:26:54.273Z,9.57
2022-08-31T07:29:24.080Z,12.20
2022-08-31T07:31:53.010Z,9.93
2022-08-31T07:34:25.618Z,7.33
2022-08-31T07:37:12.238Z,9.97
2022-08-31T07:39:58.073Z,9.00
2022-08-31T07:42:28.599Z,6.90
2022-08-31T07:44:59.532Z,10.03
2022-08-31T07:47:29.590Z,15.53
2022-08-31T07:50:00.940Z,9.67
2022-08-31T07:52:30.869Z,5.77
2022-08-31T07:55:07.644Z,9.60
2022-08-31T07:57:37.223Z,6.57
2022-08-31T08:00:09.365Z,11.00
2022-08-31T08:02:39.150Z,8.20
2022-08-31T08:05:08.362Z,11.67
2022-08-31T08:07:37.292Z,14.70
2022-08-31T08:10:08.339Z,11.33
2022-08-31T08:12:37.348Z,9.33
2022-08-31T08:15:07.754Z,12.03
2022-08-31T08:17:35.614Z,15.53
2022-08-31T08:20:03.635Z,11.07
2022-08-31T08:22:51.812Z,14.00
2022-08-31T08:25:25.887Z,14.07
2022-08-31T08:27:55.145Z,16.93
2022-08-31T08:30:24.364Z,15.07
2022-08-31T08:32:52.241Z,11.37
2022-08-31T08:35:20.202Z,14.23
2022-08-31T08:37:58.354Z,16.40
2022-08-31T08:40:33.912Z,12.70
2022-08-31T08:43:02.357Z,17.27
2022-08-31T08:45:31.936Z,13.40
2022-08-31T08:48:00.596Z,14.10
2022-08-31T08:50:29.775Z,13.63
2022-08-31T08:53:01.800Z,14.17
2022-08-31T08:55:36.034Z,13.97
2022-08-31T08:58:07.895Z,12.13
2022-08-31T09:00:38.663Z,17.47
2022-08-31T09:03:12.595Z,13.73
2022-08-31T09:05:52.011Z,12.93
2022-08-31T09:08:48.403Z,12.73
2022-08-31T09:11:23.818Z,12.67
2022-08-31T09:14:06.264Z,12.03
2022-08-31T09:16:44.680Z,15.93
2022-08-31T09:19:17.114Z,13.27
2022-08-31T09:21:47.081Z,11.87
2022-08-31T09:24:19.230Z,11.73
2022-08-31T09:27:17.269Z,12.00
2022-08-31T09:29:46.006Z,12.73
2022-08-31T09:32:27.296Z,14.07
2022-08-31T09:34:58.987Z,14.53
2022-08-31T09:37:33.146Z,13.67
2022-08-31T09:40:16.077Z,10.80
2022-08-31T09:43:04.468Z,11.43
2022-08-31T09:45:40.074Z,12.97
2022-08-31T09:48:11.327Z,15.77
2022-08-31T09:50:45.000Z,12.93
2022-08-31T09:53:34.602Z,14.57
2022-08-31T09:56:14.215Z,14.13
2022-08-31T09:58:44.073Z,14.23
2022-08-31T10:01:16.885Z,13.87
2022-08-31T10:03:47.786Z,15.33
2022-08-31T10:06:30.205Z,13.43
2022-08-31T10:09:03.457Z,17.33
2022-08-31T10:11:35.119Z,18.07
2022-08-31T10:14:08.617Z,15.60
2022-08-31T10:16:42.551Z,11.80
2022-08-31T10:19:15.754Z,15.27
2022-08-31T10:21:52.258Z,13.77
2022-08-31T10:24:29.409Z,15.93
2022-08-31T10:27:08.181Z,13.63
2022-08-31T10:29:42.010Z,14.33
2022-08-31T10:32:24.720Z,17.17
2022-08-31T10:35:06.955Z,14.97
2022-08-31T10:37:45.004Z,16.77
2022-08-31T10:40:29.522Z,15.17
2022-08-31T10:43:10.837Z,15.93
2022-08-31T10:45:43.999Z,13.80
2022-08-31T10:48:13.076Z,14.87
2022-08-31T10:50:50.179Z,13.97
2022-08-31T10:53:34.620Z,13.33
2022-08-31T10:56:15.158Z,13.27
2022-08-31T10:59:03.247Z,15.93
2022-08-31T11:01:42.421Z,10.97
2022-08-31T11:04:33.191Z,15.60
2022-08-31T11:07:12.222Z,13.97
2022-08-31T11:09:54.850Z,15.97
2022-08-31T11:12:29.057Z,13.73
2022-08-31T11:15:14.809Z,12.43
2022-08-31T11:18:22.064Z,15.10
2022-08-31T11:21:07.819Z,14.73
2022-08-31T11:23:54.839Z,17.27
2022-08-31T11:26:46.115Z,16.60
2022-08-31T11:29:33.032Z,17.53
2022-08-31T11:32:11.028Z,12.07
2022-08-31T11:34:50.814Z,13.27
2022-08-31T11:37:54.640Z,15.47
2022-08-31T11:40:57.656Z,13.97
2022-08-31T11:43:48.962Z,12.33
2022-08-31T11:47:05.121Z,10.80
2022-08-31T11:49:43.671Z,13.13
2022-08-31T11:52:29.559Z,14.53
2022-08-31T11:55:04.147Z,10.67
2022-08-31T11:57:37.588Z,14.27
2022-08-31T12:00:20.192Z,11.60
2022-08-31T12:03:04.451Z,13.23
2022-08-31T12:05:57.770Z,20.80
2022-08-31T12:08:28.547Z,18.20
2022-08-31T12:11:04.978Z,12.07
2022-08-31T12:13:49.556Z,18.43
2022-08-31T12:16:36.779Z,12.27
2022-08-31T12:19:39.824Z,15.07
2022-08-31T12:22:42.281Z,14.43
2022-08-31T12:25:20.233Z,11.53
2022-08-31T12:28:00.107Z,11.97
2022-08-31T12:30:29.198Z,15.50
2022-08-31T12:33:06.182Z,19.00
2022-08-31T12:35:34.559Z,12.33
2022-08-31T12:38:05.577Z,13.57
2022-08-31T12:40:35.712Z,14.80
2022-08-31T12:43:09.428Z,13.50
2022-08-31T12:45:54.673Z,14.27
2022-08-31T12:48:39.308Z,13.03
2022-08-31T12:51:15.386Z,15.30
2022-08-31T12:54:02.413Z,14.07
2022-08-31T12:56:39.058Z,15.97
2022-08-31T12:59:18.610Z,14.87
2022-08-31T13:01:51.117Z,17.13
2022-08-31T13:04:22.452Z,13.60
2022-08-31T13:06:50.178Z,12.37
2022-08-31T13:09:26.609Z,13.23
2022-08-31T13:11:57.026Z,16.33
2022-08-31T13:14:28.425Z,14.00
2022-08-31T13:17:04.291Z,17.67
2022-08-31T13:19:36.094Z,14.07
2022-08-31T13:22:06.776Z,15.90
2022-08-31T13:24:36.926Z,16.10
2022-08-31T13:27:10.610Z,13.63
2022-08-31T13:29:44.170Z,18.87
2022-08-31T13:32:15.071Z,15.90
2022-08-31T13:34:44.190Z,15.97
2022-08-31T13:37:21.056Z,17.90
2022-08-31T13:39:48.911Z,15.03
2022-08-31T13:42:37.700Z,15.80
2022-08-31T13:45:09.122Z,14.97
2022-08-31T13:47:48.834Z,14.50
2022-08-31T13:50:46.663Z,17.40
2022-08-31T13:53:39.987Z,16.80
2022-08-31T13:56:54.743Z,15.53
2022-08-31T13:59:30.418Z,16.83
2022-08-31T14:02:01.218Z,17.17
2022-08-31T14:05:00.499Z,19.00
2022-08-31T14:07:35.391Z,17.57
2022-08-31T14:10:08.881Z,16.37
2022-08-31T14:12:47.223Z,17.08
2022-08-31T14:15:21.167Z,12.50
2022-08-31T14:21:10.027Z,17.63
2022-08-31T14:23:36.994Z,12.95
2022-08-31T14:26:09.029Z,15.35
2022-08-31T14:28:43.987Z,14.95
2022-08-31T14:31:24.966Z,13.98
2022-08-31T14:34:07.963Z,15.50
2022-08-31T14:36:52.916Z,13.25
2022-08-31T14:39:26.496Z,10.88
2022-08-31T14:41:56.129Z,13.95
2022-08-31T14:44:27.173Z,9.48
2022-08-31T14:46:54.888Z,10.73
2022-08-31T14:49:23.361Z,21.92
2022-08-31T14:51:51.060Z,9.90
2022-08-31T14:54:19.034Z,10.10
2022-08-31T14:56:50.896Z,12.85
2022-08-31T14:59:22.004Z,11.60
2022-08-31T15:01:50.885Z,12.43
2022-08-31T15:04:21.622Z,9.85
2022-08-31T15:06:52.592Z,12.18
2022-08-31T15:09:20.430Z,6.97
2022-08-31T15:11:51.222Z,9.98
2022-08-31T15:14:19.040Z,10.35
2022-08-31T15:16:49.483Z,8.25
2022-08-31T15:19:19.081Z,9.27
2022-08-31T15:21:58.668Z,8.73
2022-08-31T15:24:31.197Z,9.00
2022-08-31T15:27:01.142Z,8.13
2022-08-31T15:29:30.167Z,10.75
2022-08-31T15:31:59.710Z,10.75
2022-08-31T15:34:30.960Z,9.93
2022-08-31T15:37:02.273Z,8.68
2022-08-31T15:39:34.940Z,9.10
2022-08-31T15:42:09.041Z,10.18
2022-08-31T15:44:36.743Z,11.27
2022-08-31T15:47:22.097Z,8.00
2022-08-31T15:49:51.086Z,8.07
2022-08-31T15:52:20.328Z,8.05
2022-08-31T15:54:50.409Z,9.15
2022-08-31T15:57:23.042Z,10.10
2022-08-31T15:59:51.321Z,8.07
2022-08-31T16:02:20.399Z,15.07
2022-08-31T16:04:50.549Z,9.88
2022-08-31T16:07:19.046Z,7.53
2022-08-31T16:09:46.723Z,6.95
2022-08-31T16:12:16.427Z,10.50
2022-08-31T16:14:45.487Z,6.38
2022-08-31T16:17:14.386Z,7.55
2022-08-31T16:19:42.880Z,5.55
2022-08-31T16:22:10.609Z,6.57
2022-08-31T16:24:38.752Z,7.68
2022-08-31T16:27:08.455Z,5.65
2022-08-31T16:29:36.889Z,6.80
2022-08-31T16:32:08.348Z,6.70
2022-08-31T16:34:37.131Z,5.53
2022-08-31T16:37:07.241Z,6.50
2022-08-31T16:39:36.030Z,5.43
2022-08-31T16:42:03.819Z,6.07
2022-08-31T16:44:36.375Z,5.97
2022-08-31T16:47:09.176Z,7.30
2022-08-31T16:49:38.696Z,4.85
2022-08-31T16:52:09.891Z,4.60
2022-08-31T16:54:41.167Z,5.45
2022-08-31T16:57:09.084Z,5.30
2022-08-31T16:59:37.321Z,5.38
2022-08-31T17:02:06.528Z,5.43
2022-08-31T17:04:51.446Z,6.45
2022-08-31T17:07:20.911Z,5.70
2022-08-31T17:09:48.725Z,6.45
2022-08-31T17:12:19.137Z,5.03
2022-08-31T17:14:51.252Z,6.25
2022-08-31T17:17:22.596Z,5.72
2022-08-31T17:19:51.935Z,6.82
2022-08-31T17:22:29.983Z,5.55
2022-08-31T17:25:00.035Z,4.88
2022-08-31T17:27:28.558Z,8.93
2022-08-31T17:29:56.686Z,7.18
2022-08-31T17:32:29.118Z,6.30
2022-08-31T17:34:57.701Z,4.88
2022-08-31T17:37:27.763Z,7.50
2022-08-31T17:39:57.119Z,5.40
2022-08-31T17:42:27.962Z,5.80
2022-08-31T17:44:58.105Z,5.63
2022-08-31T17:47:27.165Z,6.60
2022-08-31T17:49:55.540Z,6.68
2022-08-31T17:52:23.685Z,7.90
2022-08-31T17:54:52.318Z,7.95
2022-08-31T17:57:25.015Z,4.90
2022-08-31T17:59:54.796Z,5.63
2022-08-31T18:02:27.700Z,5.78
2022-08-31T18:04:56.893Z,6.63
2022-08-31T18:07:24.658Z,5.55
2022-08-31T18:09:54.023Z,5.93
2022-08-31T18:12:25.349Z,7.10
2022-08-31T18:14:54.247Z,6.57
2022-08-31T18:17:22.566Z,8.93
2022-08-31T18:19:50.713Z,8.33
2022-08-31T18:22:19.894Z,7.60
2022-08-31T18:24:47.758Z,6.82
2022-08-31T18:27:16.141Z,6.35
2022-08-31T18:29:46.940Z,5.50
2022-08-31T18:32:15.262Z,5.83
2022-08-31T18:34:47.023Z,5.68
2022-08-31T18:37:16.177Z,5.40
2022-08-31T18:40:06.491Z,5.87
2022-08-31T18:42:53.470Z,12.77
2022-08-31T18:45:21.731Z,7.27
2022-08-31T18:48:20.863Z,6.03
2022-08-31T18:50:44.085Z,6.63
2022-08-31T18:53:15.620Z,10.97
2022-08-31T18:55:52.821Z,6.73
2022-08-31T18:58:20.581Z,5.70
2022-08-31T19:00:57.293Z,8.07
2022-08-31T19:03:25.512Z,7.30
2022-08-31T19:05:53.177Z,6.03
2022-08-31T19:08:20.900Z,9.23
2022-08-31T19:10:49.238Z,6.17
2022-08-31T19:13:18.448Z,7.20
2022-08-31T19:15:46.784Z,7.77
2022-08-31T19:18:15.394Z,9.73
2022-08-31T19:20:43.056Z,10.73
2022-08-31T19:23:10.837Z,7.93
2022-08-31T19:25:43.206Z,6.27
2022-08-31T19:28:11.549Z,8.80
2022-08-31T19:30:46.910Z,7.83
2022-08-31T19:33:14.723Z,8.73
2022-08-31T19:35:42.513Z,8.77
2022-08-31T19:38:10.211Z,6.20
2022-08-31T19:40:39.899Z,9.60
2022-08-31T19:46:15.930Z,5.53
2022-08-31T19:48:45.452Z,7.03
2022-08-31T19:51:15.175Z,7.60
2022-08-31T19:53:44.904Z,6.10
2022-08-31T19:56:17.634Z,7.50
2022-08-31T19:58:46.944Z,7.90
2022-08-31T20:01:18.260Z,8.03
2022-08-31T20:03:47.930Z,9.37
2022-08-31T20:06:19.252Z,9.17
2022-08-31T20:08:48.090Z,8.97
2022-08-31T20:11:21.634Z,9.07
2022-08-31T20:13:50.355Z,10.20
2022-08-31T20:16:22.026Z,13.63
2022-08-31T20:18:53.359Z,15.47
2022-08-31T20:21:24.188Z,8.17
2022-08-31T20:23:53.799Z,8.87
2022-08-31T20:26:27.881Z,16.90
2022-08-31T20:29:04.166Z,9.07
2022-08-31T20:31:35.236Z,9.00
2022-08-31T20:34:02.964Z,11.90
2022-08-31T20:36:32.789Z,10.23
2022-08-31T20:39:02.310Z,7.00
2022-08-31T20:41:32.354Z,7.53
2022-08-31T20:44:05.096Z,8.97
2022-08-31T20:46:50.093Z,7.17
2022-08-31T20:49:26.169Z,11.03
2022-08-31T20:51:56.520Z,7.43
2022-08-31T20:54:25.286Z,8.93
2022-08-31T20:56:54.058Z,10.87
2022-08-31T20:59:23.547Z,14.50
2022-08-31T21:01:55.110Z,14.53
2022-08-31T21:04:24.330Z,10.70
2022-08-31T21:06:52.370Z,7.20
2022-08-31T21:09:20.399Z,6.27
2022-08-31T21:11:48.944Z,6.87
2022-08-31T21:14:19.983Z,10.20
2022-08-31T21:16:48.468Z,6.87
2022-08-31T21:19:22.190Z,6.60
2022-08-31T21:21:54.014Z,8.47
2022-08-31T21:24:23.021Z,6.97
2022-08-31T21:26:59.109Z,8.80
2022-08-31T21:29:28.939Z,8.53
2022-08-31T21:32:03.338Z,8.40
2022-08-31T21:34:31.515Z,8.10
2022-08-31T21:37:00.711Z,7.63
2022-08-31T21:39:28.625Z,10.60
2022-08-31T21:41:56.535Z,8.87
2022-08-31T21:44:24.428Z,9.10
2022-08-31T21:46:52.330Z,8.93
2022-08-31T21:49:20.682Z,6.47
2022-08-31T21:51:51.888Z,9.60
2022-08-31T21:54:23.396Z,6.73
2022-08-31T21:56:52.685Z,8.53
2022-08-31T21:59:22.557Z,9.37
2022-08-31T22:01:59.231Z,7.43
2022-08-31T22:04:27.344Z,7.63
2022-08-31T22:06:56.319Z,7.93
2022-08-31T22:09:25.427Z,8.43
2022-08-31T22:11:56.506Z,8.27
2022-08-31T22:14:29.260Z,7.00
2022-08-31T22:16:58.055Z,7.40
2022-08-31T22:19:28.365Z,10.83
2022-08-31T22:21:59.068Z,9.43
2022-08-31T22:24:32.128Z,7.10
2022-08-31T22:27:02.389Z,8.73
2022-08-31T22:29:31.956Z,7.70
2022-08-31T22:32:02.231Z,7.70
2022-08-31T22:34:30.393Z,7.83
2022-08-31T22:36:58.247Z,10.87
2022-08-31T22:39:28.936Z,10.20
2022-08-31T22:41:57.133Z,8.80
2022-08-31T22:44:27.041Z,13.20
2022-08-31T22:46:56.787Z,9.83
2022-08-31T22:49:24.811Z,8.73
2022-08-31T22:51:53.715Z,13.43
2022-08-31T22:54:22.553Z,8.60
2022-08-31T22:56:51.833Z,7.90
2022-08-31T22:59:26.140Z,8.50
2022-08-31T23:01:56.325Z,6.97
2022-08-31T23:04:27.537Z,8.00
2022-08-31T23:06:57.331Z,8.60
2022-08-31T23:09:30.145Z,8.03
2022-08-31T23:12:01.824Z,8.33
2022-08-31T23:14:32.130Z,13.93
2022-08-31T23:17:01.352Z,6.60
2022-08-31T23:19:33.209Z,8.77
2022-08-31T23:22:01.952Z,9.23
2022-08-31T23:24:32.267Z,8.60
2022-08-31T23:27:05.088Z,8.77
2022-08-31T23:29:34.741Z,7.60
2022-08-31T23:32:02.882Z,7.43
2022-08-31T23:34:30.897Z,8.37
2022-08-31T23:36:58.545Z,8.93
2022-08-31T23:39:26.331Z,6.47
2022-08-31T23:41:54.031Z,10.37
2022-08-31T23:44:24.576Z,6.90
2022-08-31T23:46:52.470Z,7.50
2022-08-31T23:49:20.780Z,10.63
2022-08-31T23:51:50.842Z,7.33
2022-08-31T23:54:19.047Z,5.77
2022-08-31T23:56:48.810Z,6.03
2022-08-31T23:59:19.683Z,7.70
